Time;durP1;ratioP1;P1;durP2;ratioP2;P2;SDS_P1;SDS_P2;PMS_P1;PMS_P2;Temp;Humidity;BMP_temperature;BMP_pressure;BME280_temperature;BME280_humidity;BME280_pressure;Samples;Min_cycle;Max_cycle;Signal;HPM_P1;HPM_P2
2022/12/23 00:01:52;;;;;;;79.90;42.17;;;;;;;1.45;100.00;99374.28;5051661;28;20220;-55
2022/12/23 00:04:18;;;;;;;90.77;42.83;;;;;;;1.44;100.00;99385.34;5052022;28;20195;-60
2022/12/23 00:06:45;;;;;;;75.20;41.13;;;;;;;1.50;100.00;99388.78;5051785;28;20204;-60
2022/12/23 00:09:12;;;;;;;90.87;42.10;;;;;;;1.59;100.00;99378.59;5052151;28;20204;-60
2022/12/23 00:15:04;;;;;;;81.87;40.60;;;;;;;1.60;100.00;99375.19;5051677;28;20192;-59
2022/12/23 00:17:12;;;;;;;79.93;40.97;;;;;;;1.54;100.00;99378.59;5051726;28;20800;-60
2022/12/23 00:19:39;;;;;;;79.90;40.27;;;;;;;1.54;100.00;99370.91;5051825;28;20199;-60
2022/12/23 00:22:06;;;;;;;87.37;42.17;;;;;;;1.64;100.00;99380.34;5051393;28;20269;-60
2022/12/23 00:24:33;;;;;;;89.10;42.63;;;;;;;1.56;100.00;99378.59;5051730;28;20207;-60
2022/12/23 00:27:01;;;;;;;84.07;41.30;;;;;;;1.55;100.00;99375.19;5051433;28;20202;-55
2022/12/23 00:29:28;;;;;;;87.23;42.33;;;;;;;1.45;100.00;99370.88;5051622;28;20231;-61
2022/12/23 00:31:55;;;;;;;87.70;42.57;;;;;;;1.48;100.00;99370.88;5051611;28;20572;-54
2022/12/23 00:34:22;;;;;;;85.20;41.83;;;;;;;1.52;100.00;99374.31;5051120;28;20199;-54
2022/12/23 00:36:49;;;;;;;83.10;41.40;;;;;;;1.51;100.00;99365.78;5051144;28;20283;-55
2022/12/23 00:44:45;;;;;;;74.63;40.00;;;;;;;1.73;100.00;99369.28;5051109;28;20198;-55
2022/12/23 00:49:40;;;;;;;75.23;39.33;;;;;;;1.75;100.00;99376.13;5050895;28;20205;-60
2022/12/23 00:49:59;;;;;;;77.50;39.40;;;;;;;1.67;100.00;99371.81;5050766;28;20208;-54
2022/12/23 00:52:27;;;;;;;81.20;39.30;;;;;;;1.62;100.00;99365.81;5050818;28;20260;-60
2022/12/23 00:54:53;;;;;;;80.53;40.37;;;;;;;1.60;100.00;99375.19;5051091;28;20210;-55
2022/12/23 00:57:22;;;;;;;81.60;39.60;;;;;;;1.54;100.00;99367.50;5050782;28;20203;-60
2022/12/23 00:59:49;;;;;;;81.40;38.70;;;;;;;1.57;100.00;99373.50;5050526;28;20200;-54
2022/12/23 01:07:44;;;;;;;75.63;38.87;;;;;;;1.67;100.00;99361.59;5043577;28;20698;-54
2022/12/23 01:10:11;;;;;;;71.23;39.60;;;;;;;1.73;100.00;99361.59;5050260;28;20203;-54
2022/12/23 01:12:39;;;;;;;74.00;39.40;;;;;;;1.64;100.00;99354.75;5050794;28;20200;-54
2022/12/23 01:15:07;;;;;;;70.57;38.17;;;;;;;1.64;100.00;99346.22;5050625;28;20200;-55
2022/12/23 01:17:34;;;;;;;75.63;36.47;;;;;;;1.59;100.00;99347.88;5050244;28;20229;-55
2022/12/23 01:20:01;;;;;;;76.87;38.23;;;;;;;1.53;100.00;99345.31;5051063;28;20727;-60
2022/12/23 01:22:28;;;;;;;64.90;35.70;;;;;;;1.49;100.00;99341.88;5050594;28;20231;-54
2022/12/23 01:24:55;;;;;;;68.23;35.67;;;;;;;1.54;100.00;99340.22;5050440;28;20230;-60
2022/12/23 01:27:22;;;;;;;69.63;36.40;;;;;;;1.56;100.00;99342.78;5051119;28;20204;-54
2022/12/23 01:29:50;;;;;;;69.63;35.97;;;;;;;1.62;100.00;99340.25;5050109;28;20205;-54
2022/12/23 01:32:17;;;;;;;68.60;35.60;;;;;;;1.60;100.00;99342.78;5049927;28;20199;-54
2022/12/23 01:34:43;;;;;;;74.57;37.73;;;;;;;1.50;100.00;99332.50;5050059;28;20232;-55
2022/12/23 01:37:10;;;;;;;71.67;38.70;;;;;;;1.38;100.00;99331.59;5050425;28;20211;-60
2022/12/23 01:39:37;;;;;;;80.00;38.93;;;;;;;1.39;100.00;99328.22;5050827;28;20204;-60
2022/12/23 01:44:58;;;;;;;80.77;38.67;;;;;;;1.51;100.00;99329.09;5043625;28;20195;-60
2022/12/23 01:47:33;;;;;;;74.07;37.00;;;;;;;1.49;100.00;99330.78;5050390;28;20702;-54
2022/12/23 01:50:07;;;;;;;81.77;39.60;;;;;;;1.50;100.00;99317.16;5049306;28;20201;-55
2022/12/23 01:52:39;;;;;;;73.03;37.13;;;;;;;1.58;100.00;99315.53;5049911;28;20257;-60
2022/12/23 01:55:07;;;;;;;69.23;37.10;;;;;;;1.60;100.00;99318.91;5050028;28;20225;-54
2022/12/23 01:57:36;;;;;;;77.70;37.60;;;;;;;1.32;100.00;99300.91;5049738;28;20213;-60
2022/12/23 02:05:36;;;;;;;74.33;37.47;;;;;;;1.41;100.00;99323.97;5050281;28;20203;-60
2022/12/23 02:11:21;;;;;;;65.67;36.30;;;;;;;1.39;100.00;99304.34;5049587;28;20203;-55
2022/12/23 02:16:53;;;;;;;73.07;35.80;;;;;;;1.57;100.00;99303.56;5049159;28;20614;-53
2022/12/23 02:19:40;;;;;;;67.17;35.57;;;;;;;1.59;100.00;99297.59;5049331;28;20207;-55
2022/12/23 02:22:25;;;;;;;63.20;33.97;;;;;;;1.51;100.00;99298.41;5049083;28;20231;-55
2022/12/23 02:25:37;;;;;;;63.57;32.80;;;;;;;1.58;100.00;99305.28;5049281;28;20197;-56
2022/12/23 02:28:26;;;;;;;66.07;33.87;;;;;;;1.69;100.00;99311.28;5021531;28;20201;-54
2022/12/23 02:31:00;;;;;;;75.90;37.67;;;;;;;1.70;100.00;99310.41;5049223;28;20218;-54
2022/12/23 02:33:46;;;;;;;75.00;35.13;;;;;;;1.74;100.00;99312.16;5049048;28;20570;-55
2022/12/23 02:36:27;;;;;;;69.70;34.00;;;;;;;1.73;100.00;99307.88;5049469;28;20197;-55
2022/12/23 02:39:01;;;;;;;71.97;34.67;;;;;;;1.73;100.00;99311.28;5049403;28;20591;-54
2022/12/23 02:41:34;;;;;;;70.13;33.37;;;;;;;1.61;100.00;99306.13;5049033;28;20288;-55
2022/12/23 02:44:06;;;;;;;73.13;35.17;;;;;;;1.50;100.00;99302.69;5049151;28;20247;-55
2022/12/23 02:46:38;;;;;;;65.57;34.20;;;;;;;1.39;100.00;99294.97;5049955;28;20199;-60
2022/12/23 02:49:11;;;;;;;58.50;30.83;;;;;;;1.42;100.00;99299.25;5049342;28;20223;-55
2022/12/23 02:51:44;;;;;;;64.80;32.53;;;;;;;1.41;100.00;99295.84;5049619;28;20588;-60
2022/12/23 02:54:15;;;;;;;54.33;29.33;;;;;;;1.36;100.00;99264.25;5049992;28;20198;-60
2022/12/23 02:56:46;;;;;;;58.33;30.30;;;;;;;1.49;100.00;99289.88;5049737;28;20198;-54
2022/12/23 02:59:18;;;;;;;51.70;28.50;;;;;;;1.37;100.00;99280.47;5049295;28;20202;-55
2022/12/23 03:01:49;;;;;;;54.00;29.77;;;;;;;1.45;100.00;99301.81;5050793;28;20224;-55
2022/12/23 03:04:16;;;;;;;53.87;29.20;;;;;;;1.47;100.00;99284.75;5053124;28;20209;-60
2022/12/23 03:06:45;;;;;;;52.77;28.37;;;;;;;1.40;100.00;99291.56;5053130;28;20209;-60
2022/12/23 03:09:21;;;;;;;53.73;28.40;;;;;;;1.42;100.00;99286.47;5053254;28;20198;-60
2022/12/23 03:12:04;;;;;;;47.10;27.13;;;;;;;1.44;100.00;99288.19;5053291;28;20199;-55
2022/12/23 03:14:53;;;;;;;52.53;28.97;;;;;;;1.46;100.00;99290.75;5052913;28;20204;-61
2022/12/23 03:17:42;;;;;;;50.37;28.03;;;;;;;1.52;100.00;99284.78;5052695;28;20310;-60
2022/12/23 03:20:14;;;;;;;52.10;27.77;;;;;;;1.54;100.00;99290.78;5053001;28;20223;-60
2022/12/23 03:22:50;;;;;;;50.97;28.03;;;;;;;1.50;100.00;99286.47;5052999;28;20729;-60
2022/12/23 03:25:23;;;;;;;51.93;27.70;;;;;;;1.55;100.00;99284.81;5052912;28;20195;-60
2022/12/23 03:27:55;;;;;;;48.50;26.17;;;;;;;1.49;100.00;99279.66;5053248;28;20198;-60
2022/12/23 03:30:23;;;;;;;47.67;26.60;;;;;;;1.62;100.00;99277.16;5053830;28;20202;-60
2022/12/23 03:32:58;;;;;;;48.63;26.93;;;;;;;1.60;100.00;99267.75;5053482;28;20266;-60
2022/12/23 03:35:30;;;;;;;51.27;26.90;;;;;;;1.63;100.00;99276.31;5053329;28;20187;-61
2022/12/23 03:38:00;;;;;;;51.30;27.23;;;;;;;1.64;100.00;99279.72;5053202;28;20204;-60
2022/12/23 03:40:30;;;;;;;54.57;27.63;;;;;;;1.56;100.00;99274.59;5053146;28;20604;-60
2022/12/23 03:43:04;;;;;;;51.70;27.33;;;;;;;1.50;100.00;99272.00;5052885;28;20243;-60
2022/12/23 03:45:38;;;;;;;50.37;26.97;;;;;;;1.51;100.00;99275.41;5053083;28;20198;-60
2022/12/23 03:48:11;;;;;;;50.70;27.73;;;;;;;1.56;100.00;99276.28;5052536;28;20203;-55
2022/12/23 03:50:40;;;;;;;49.67;27.20;;;;;;;1.50;100.00;99271.13;5051956;28;20193;-54
2022/12/23 03:53:11;;;;;;;49.40;28.00;;;;;;;1.49;100.00;99280.50;5052297;28;20677;-54
2022/12/23 03:55:43;;;;;;;54.43;28.30;;;;;;;1.49;100.00;99279.66;5051844;28;20193;-54
2022/12/23 03:58:16;;;;;;;50.77;27.70;;;;;;;1.48;100.00;99277.94;5051929;28;20607;-54
2022/12/23 04:00:48;;;;;;;49.83;26.47;;;;;;;1.42;100.00;99292.44;5051860;28;20200;-55
2022/12/23 04:03:22;;;;;;;52.13;26.03;;;;;;;1.29;100.00;99277.88;5051801;28;20237;-55
2022/12/23 04:05:54;;;;;;;48.63;26.57;;;;;;;1.31;100.00;99276.19;5052116;28;20668;-55
2022/12/23 04:08:25;;;;;;;52.53;27.57;;;;;;;1.35;100.00;99285.59;5052064;28;20197;-60
2022/12/23 04:10:53;;;;;;;51.83;26.40;;;;;;;1.28;100.00;99288.94;5068588;28;20688;-60
2022/12/23 04:13:20;;;;;;;48.53;26.87;;;;;;;1.31;100.00;99298.34;5071456;28;20195;-60
2022/12/23 04:15:47;;;;;;;47.47;25.70;;;;;;;1.34;100.00;99293.25;5073108;28;20620;-59
2022/12/23 04:18:15;;;;;;;45.73;25.77;;;;;;;1.42;100.00;99283.91;5072802;28;20204;-61
2022/12/23 04:20:43;;;;;;;46.90;24.27;;;;;;;1.41;100.00;99269.41;5072735;28;20200;-54
2022/12/23 04:23:10;;;;;;;53.40;25.13;;;;;;;1.44;100.00;99277.94;5071080;28;20227;-53
2022/12/23 04:25:37;;;;;;;50.50;24.27;;;;;;;1.48;100.00;99277.94;5071669;28;20211;-60
2022/12/23 04:28:04;;;;;;;40.00;23.07;;;;;;;1.65;100.00;99281.44;5072596;28;20200;-60
2022/12/23 04:30:31;;;;;;;42.87;23.27;;;;;;;1.36;100.00;99278.75;5073016;28;20221;-61
2022/12/23 04:32:58;;;;;;;45.67;24.17;;;;;;;1.46;100.00;99275.41;5068961;28;20188;-61
2022/12/23 04:35:24;;;;;;;49.77;26.00;;;;;;;1.53;100.00;99268.59;5052225;28;20201;-61
2022/12/23 04:37:53;;;;;;;45.03;25.10;;;;;;;1.50;100.00;99271.13;5052378;28;20203;-61
2022/12/23 04:40:20;;;;;;;47.63;26.97;;;;;;;1.60;100.00;99271.16;5069514;28;20197;-55
2022/12/23 04:42:46;;;;;;;51.53;27.57;;;;;;;1.53;100.00;99261.78;5048862;28;20606;-54
2022/12/23 04:45:13;;;;;;;51.40;27.70;;;;;;;1.61;100.00;99279.69;5033192;28;20195;-55
2022/12/23 04:47:40;;;;;;;44.77;26.33;;;;;;;1.64;100.00;99295.06;5040624;28;20196;-55
2022/12/23 04:50:13;;;;;;;49.80;26.33;;;;;;;1.60;100.00;99288.22;5039651;28;20203;-55
2022/12/23 04:52:40;;;;;;;53.90;27.97;;;;;;;1.42;100.00;99289.88;5036406;28;20692;-60
2022/12/23 04:55:09;;;;;;;49.13;27.83;;;;;;;1.54;100.00;99285.66;5032183;28;20570;-61
2022/12/23 04:57:36;;;;;;;63.23;28.87;;;;;;;1.35;100.00;99277.06;5032315;28;20293;-60
2022/12/23 05:00:04;;;;;;;67.37;31.03;;;;;;;1.30;100.00;99248.91;5032074;28;20200;-60
2022/12/23 05:02:31;;;;;;;62.83;31.53;;;;;;;1.44;100.00;99267.72;5031505;28;20230;-59
2022/12/23 05:04:57;;;;;;;59.10;28.47;;;;;;;1.57;100.00;99295.91;5031533;28;20198;-60
2022/12/23 05:07:24;;;;;;;53.50;28.77;;;;;;;1.53;100.00;99292.47;5031192;28;20291;-60
2022/12/23 05:09:51;;;;;;;54.17;29.27;;;;;;;1.58;100.00;99295.88;5031299;28;20221;-61
2022/12/23 05:12:20;;;;;;;61.00;30.13;;;;;;;1.37;100.00;99268.53;5031797;28;20198;-61
2022/12/23 05:14:46;;;;;;;58.13;29.80;;;;;;;1.41;100.00;99283.03;5031594;28;20660;-61
2022/12/23 05:17:13;;;;;;;67.70;31.20;;;;;;;1.38;100.00;99266.81;5030892;28;20230;-60
2022/12/23 05:19:40;;;;;;;55.40;30.40;;;;;;;1.56;100.00;99281.41;5030820;28;20204;-54
2022/12/23 05:22:07;;;;;;;57.07;30.90;;;;;;;1.51;100.00;99278.81;5030129;28;20200;-55
2022/12/23 05:24:34;;;;;;;55.03;29.87;;;;;;;1.59;100.00;99274.56;5030387;28;20202;-55
2022/12/23 05:27:01;;;;;;;59.87;31.13;;;;;;;1.62;100.00;99278.84;5029486;28;20207;-60
2022/12/23 05:29:29;;;;;;;58.93;30.73;;;;;;;1.69;100.00;99293.38;5029854;28;20201;-60
2022/12/23 05:31:56;;;;;;;65.47;32.70;;;;;;;1.65;100.00;99296.78;5030899;28;20204;-60
2022/12/23 05:34:23;;;;;;;63.40;32.23;;;;;;;1.73;100.00;99292.53;5031119;28;20580;-60
2022/12/23 05:36:50;;;;;;;62.03;32.47;;;;;;;1.69;100.00;99293.38;5030620;28;20593;-60
2022/12/23 05:39:17;;;;;;;61.63;32.10;;;;;;;1.68;100.00;99296.78;5031021;28;20227;-60
2022/12/23 05:41:44;;;;;;;63.03;31.27;;;;;;;1.65;100.00;99307.00;5030867;28;20211;-60
2022/12/23 05:44:11;;;;;;;64.63;32.40;;;;;;;1.63;100.00;99307.00;5030548;28;20231;-60
2022/12/23 05:46:39;;;;;;;60.97;33.40;;;;;;;1.72;100.00;99312.13;5030771;28;20204;-60
2022/12/23 05:49:06;;;;;;;61.63;33.43;;;;;;;1.83;100.00;99317.28;5030822;28;20211;-60
2022/12/23 05:51:33;;;;;;;63.23;33.07;;;;;;;1.74;100.00;99297.66;5042388;28;20205;-60
2022/12/23 05:54:00;;;;;;;63.43;33.87;;;;;;;1.86;100.00;99314.75;5050842;28;20203;-60
2022/12/23 05:56:27;;;;;;;65.27;35.23;;;;;;;1.79;100.00;99315.59;5050952;28;20203;-60
2022/12/23 05:58:54;;;;;;;75.10;37.10;;;;;;;1.88;100.00;99318.16;5050925;28;20204;-59
2022/12/23 06:01:21;;;;;;;70.20;36.53;;;;;;;1.64;100.00;99302.75;5050469;28;20583;-60
2022/12/23 06:03:49;;;;;;;72.80;36.93;;;;;;;1.77;100.00;99322.41;5050300;28;20601;-59
2022/12/23 06:06:16;;;;;;;62.63;34.67;;;;;;;1.83;100.00;99328.38;5050530;28;20212;-60
2022/12/23 06:08:43;;;;;;;76.13;35.10;;;;;;;1.76;100.00;99318.13;5050446;28;20213;-61
2022/12/23 06:11:11;;;;;;;72.20;35.93;;;;;;;1.71;100.00;99299.34;5050927;28;20608;-61
2022/12/23 06:13:38;;;;;;;76.73;37.47;;;;;;;1.79;100.00;99311.34;5049265;28;20201;-55
2022/12/23 06:16:06;;;;;;;79.83;37.23;;;;;;;2.00;100.00;99314.78;5049130;28;20233;-54
2022/12/23 06:18:33;;;;;;;79.47;36.53;;;;;;;2.04;100.00;99311.38;5049057;28;20679;-55
2022/12/23 06:21:01;;;;;;;72.47;36.67;;;;;;;2.00;100.00;99312.22;5049930;28;20219;-56
2022/12/23 06:23:28;;;;;;;71.27;37.27;;;;;;;2.01;100.00;99317.34;5049255;28;20230;-54
2022/12/23 06:25:58;;;;;;;74.23;37.90;;;;;;;2.01;100.00;99313.94;5049297;28;20200;-54
2022/12/23 06:28:25;;;;;;;75.83;37.97;;;;;;;2.05;100.00;99313.94;5049356;28;20567;-55
2022/12/23 06:30:53;;;;;;;80.67;39.93;;;;;;;2.23;100.00;99319.94;5049231;28;20204;-57
2022/12/23 06:33:20;;;;;;;77.47;39.80;;;;;;;1.91;100.00;99277.25;5046733;28;20262;-55
2022/12/23 06:35:47;;;;;;;88.00;41.50;;;;;;;2.29;100.00;99322.50;5029202;28;20210;-55
2022/12/23 06:38:15;;;;;;;84.77;40.27;;;;;;;2.31;100.00;99331.06;5029460;28;20202;-55
2022/12/23 06:40:42;;;;;;;87.30;41.80;;;;;;;2.48;100.00;99322.50;5029818;28;20571;-54
2022/12/23 06:43:12;;;;;;;81.30;41.20;;;;;;;2.50;100.00;99325.94;5029037;28;20700;-55
2022/12/23 06:45:39;;;;;;;107.23;44.73;;;;;;;2.61;100.00;99325.94;5028733;28;20208;-55
2022/12/23 06:48:06;;;;;;;110.07;49.77;;;;;;;2.65;100.00;99329.38;5028976;28;20196;-56
2022/12/23 06:50:33;;;;;;;113.37;52.93;;;;;;;2.76;100.00;99323.38;5029525;28;20201;-56
2022/12/23 06:53:00;;;;;;;103.30;50.50;;;;;;;2.85;100.00;99318.25;5029535;28;20196;-55
2022/12/23 06:55:28;;;;;;;103.73;47.90;;;;;;;2.87;100.00;99319.09;5028965;28;20258;-55
2022/12/23 06:57:56;;;;;;;96.30;44.67;;;;;;;2.96;100.00;99327.63;5029010;28;20212;-55
2022/12/23 07:00:23;;;;;;;84.57;41.70;;;;;;;2.95;100.00;99331.91;5045751;28;20711;-55
2022/12/23 07:02:50;;;;;;;108.83;48.40;;;;;;;2.93;100.00;99319.06;5044984;28;20621;-59
2022/12/23 07:05:17;;;;;;;132.10;63.87;;;;;;;2.99;100.00;99320.78;5035221;28;20289;-60
2022/12/23 07:07:44;;;;;;;132.57;58.90;;;;;;;2.91;100.00;99320.81;5048723;28;20197;-60
2022/12/23 07:10:11;;;;;;;114.60;51.90;;;;;;;2.80;100.00;99312.28;5048610;28;20200;-58
2022/12/23 07:12:39;;;;;;;102.73;50.23;;;;;;;2.96;100.00;99325.06;5049047;28;20197;-60
2022/12/23 07:15:07;;;;;;;101.57;48.40;;;;;;;2.91;100.00;99325.94;5049047;28;20204;-59
2022/12/23 07:17:34;;;;;;;90.17;42.50;;;;;;;2.88;100.00;99336.19;5048885;28;20230;-59
2022/12/23 07:20:01;;;;;;;99.93;48.53;;;;;;;2.88;100.00;99333.63;5049276;28;20596;-55
2022/12/23 07:22:28;;;;;;;93.23;44.83;;;;;;;2.68;100.00;99337.91;5048550;28;20211;-54
2022/12/23 07:24:55;;;;;;;86.23;44.40;;;;;;;2.72;100.00;99344.72;5048462;28;20231;-59
2022/12/23 07:27:22;;;;;;;97.20;46.00;;;;;;;2.77;100.00;99348.16;5048816;28;20197;-58
2022/12/23 07:29:50;;;;;;;95.53;46.73;;;;;;;2.72;100.00;99342.16;5049088;28;20203;-59
2022/12/23 07:32:17;;;;;;;93.80;44.77;;;;;;;2.88;100.00;99333.63;5048780;28;20206;-59
2022/12/23 07:34:44;;;;;;;88.67;42.90;;;;;;;2.99;100.00;99345.56;5049082;28;20581;-59
2022/12/23 07:37:11;;;;;;;91.77;44.83;;;;;;;2.89;100.00;99342.16;5048939;28;20207;-58
2022/12/23 07:39:38;;;;;;;100.17;50.17;;;;;;;2.97;100.00;99339.59;5048939;28;20193;-59
2022/12/23 07:42:05;;;;;;;101.57;50.63;;;;;;;2.99;100.00;99330.19;5048792;28;20201;-59
2022/12/23 07:44:32;;;;;;;94.53;47.47;;;;;;;3.07;100.00;99336.16;5048855;28;20897;-60
2022/12/23 07:47:00;;;;;;;89.77;46.43;;;;;;;3.23;100.00;99348.09;5048974;28;20211;-60
2022/12/23 07:49:27;;;;;;;102.70;43.97;;;;;;;3.10;100.00;99337.00;5051468;28;20207;-60
2022/12/23 07:51:54;;;;;;;89.03;43.00;;;;;;;3.09;100.00;99348.13;5052215;28;20193;-55
2022/12/23 07:54:21;;;;;;;80.43;40.67;;;;;;;3.28;100.00;99351.50;5051887;28;20195;-60
2022/12/23 07:56:48;;;;;;;73.33;39.53;;;;;;;3.39;100.00;99362.59;5052467;28;20196;-60
2022/12/23 07:59:15;;;;;;;90.43;39.93;;;;;;;3.44;100.00;99360.88;5052239;28;20223;-55
2022/12/23 08:01:42;;;;;;;90.63;43.70;;;;;;;3.40;100.00;99356.59;5051919;28;20588;-55
2022/12/23 08:04:10;;;;;;;83.37;41.30;;;;;;;3.40;100.00;99342.91;5051952;28;20228;-54
2022/12/23 08:06:37;;;;;;;84.87;42.77;;;;;;;3.47;100.00;99336.94;5051766;28;20227;-56
2022/12/23 08:09:05;;;;;;;93.20;44.43;;;;;;;3.57;100.00;99343.72;5051649;28;20196;-54
2022/12/23 08:11:32;;;;;;;88.67;43.67;;;;;;;3.57;100.00;99341.16;5050965;28;20208;-56
2022/12/23 08:13:59;;;;;;;93.03;41.77;;;;;;;3.72;100.00;99337.69;5065436;28;20739;-55
2022/12/23 08:16:26;;;;;;;90.27;41.27;;;;;;;3.80;100.00;99346.22;5070282;28;20711;-60
2022/12/23 08:18:52;;;;;;;87.83;42.27;;;;;;;3.87;100.00;99353.00;5071376;28;20188;-60
2022/12/23 08:21:21;;;;;;;83.43;44.63;;;;;;;3.90;100.00;99353.00;5070715;28;20269;-60
2022/12/23 08:23:48;;;;;;;88.63;42.10;;;;;;;4.03;100.00;99353.81;5071219;28;20215;-61
2022/12/23 08:26:16;;;;;;;83.30;42.57;;;;;;;4.05;100.00;99347.81;5070942;28;20242;-60
2022/12/23 08:28:44;;;;;;;87.43;43.90;;;;;;;4.13;100.00;99346.03;5050356;28;20564;-60
2022/12/23 08:31:13;;;;;;;74.17;40.97;;;;;;;4.11;100.00;99349.47;5071380;28;20199;-56
2022/12/23 08:33:42;;;;;;;85.70;39.73;;;;;;;4.21;100.00;99357.13;5069944;28;20616;-55
2022/12/23 08:36:12;;;;;;;71.90;39.17;;;;;;;4.11;100.00;99346.91;5069938;28;20204;-60
2022/12/23 08:38:41;;;;;;;70.50;38.37;;;;;;;4.29;100.00;99342.50;5071436;28;20994;-61
2022/12/23 08:41:13;;;;;;;74.70;37.80;;;;;;;4.42;100.00;99343.28;5071556;28;20200;-61
2022/12/23 08:43:40;;;;;;;72.93;40.03;;;;;;;4.58;100.00;99346.59;5071060;28;20759;-60
2022/12/23 08:46:07;;;;;;;74.43;39.17;;;;;;;4.69;100.00;99347.38;5070359;28;20200;-61
2022/12/23 08:48:35;;;;;;;66.20;37.90;;;;;;;4.68;100.00;99343.09;5070127;28;20732;-60
2022/12/23 08:51:04;;;;;;;66.80;33.27;;;;;;;4.76;100.00;99333.59;5070257;28;20230;-60
2022/12/23 08:53:31;;;;;;;71.50;37.60;;;;;;;4.64;100.00;99339.69;5068633;28;20200;-54
2022/12/23 08:56:02;;;;;;;76.30;37.97;;;;;;;4.87;100.00;99342.06;5068961;28;20201;-55
2022/12/23 08:58:30;;;;;;;75.33;38.83;;;;;;;5.06;100.00;99332.50;5069571;28;20203;-55
2022/12/23 09:00:57;;;;;;;78.23;43.83;;;;;;;5.14;100.00;99340.13;5068420;28;20739;-55
2022/12/23 09:03:24;;;;;;;79.73;41.63;;;;;;;5.33;100.00;99334.75;5068988;28;20196;-54
2022/12/23 09:05:50;;;;;;;70.33;40.23;;;;;;;5.47;100.00;99337.19;5068581;28;20196;-53
2022/12/23 09:08:17;;;;;;;76.77;38.33;;;;;;;5.66;100.00;99335.25;5069960;28;20200;-59
2022/12/23 09:10:44;;;;;;;71.93;37.53;;;;;;;5.79;100.00;99326.50;5070255;28;20199;-59
2022/12/23 09:13:13;;;;;;;63.30;36.67;;;;;;;5.96;100.00;99316.03;5070451;28;20196;-59
2022/12/23 09:15:42;;;;;;;66.83;35.23;;;;;;;6.07;100.00;99311.59;5070072;28;20196;-60
2022/12/23 09:18:09;;;;;;;65.83;35.17;;;;;;;6.26;100.00;99318.19;5071602;28;20668;-61
2022/12/23 09:20:36;;;;;;;65.40;34.43;;;;;;;6.21;100.00;99309.66;5070025;28;20235;-59
2022/12/23 09:23:03;;;;;;;80.57;43.83;;;;;;;6.34;100.00;99311.16;5064784;28;20210;-56
2022/12/23 09:25:31;;;;;;;69.47;38.73;;;;;;;6.37;99.68;99312.88;5068478;28;20258;-54
2022/12/23 09:27:58;;;;;;;71.07;37.87;;;;;;;6.47;99.70;99312.69;5068822;28;20684;-54
2022/12/23 09:30:26;;;;;;;66.93;38.83;;;;;;;6.48;98.18;99303.22;5058665;28;20208;-54
2022/12/23 09:32:53;;;;;;;68.13;40.30;;;;;;;6.61;97.95;99299.59;5059732;28;20198;-57
2022/12/23 09:35:20;;;;;;;63.40;38.07;;;;;;;6.35;98.76;99307.72;5069875;28;20196;-61
2022/12/23 09:37:47;;;;;;;65.67;39.13;;;;;;;6.48;98.04;99301.50;5071575;28;20192;-61
2022/12/23 09:40:16;;;;;;;74.87;39.60;;;;;;;6.68;98.22;99300.31;5071091;28;20317;-60
2022/12/23 09:42:57;;;;;;;79.10;40.40;;;;;;;6.75;98.20;99307.09;5070668;28;20203;-61
2022/12/23 09:45:44;;;;;;;74.47;38.33;;;;;;;6.90;97.42;99306.81;5070312;28;20219;-61
2022/12/23 09:48:15;;;;;;;76.53;38.93;;;;;;;6.94;97.12;99287.84;5069921;28;20200;-61
2022/12/23 09:50:44;;;;;;;71.47;37.83;;;;;;;7.11;96.11;99278.06;5071560;28;20701;-61
2022/12/23 09:53:15;;;;;;;76.47;39.93;;;;;;;7.42;94.60;99301.56;5070601;28;20586;-60
2022/12/23 09:55:49;;;;;;;78.07;42.50;;;;;;;7.62;93.60;99299.44;5061866;28;20606;-55
2022/12/23 09:58:27;;;;;;;79.60;40.17;;;;;;;7.52;93.44;99287.59;5032665;28;20220;-55
2022/12/23 10:01:11;;;;;;;78.57;40.40;;;;;;;7.69;92.01;99295.00;5069127;28;20216;-55
2022/12/23 10:03:59;;;;;;;72.80;40.83;;;;;;;7.77;92.05;99290.53;5032037;28;20205;-55
2022/12/23 10:06:29;;;;;;;79.13;42.67;;;;;;;7.86;91.88;99285.16;5045378;28;20220;-56
2022/12/23 10:09:03;;;;;;;85.50;43.13;;;;;;;7.90;91.00;99273.03;5069208;28;20286;-54
2022/12/23 10:11:36;;;;;;;77.93;44.23;;;;;;;7.94;91.73;99275.50;5066960;28;20290;-56
2022/12/23 10:14:12;;;;;;;88.33;45.73;;;;;;;7.95;91.92;99278.94;5068877;28;20196;-55
2022/12/23 10:16:45;;;;;;;83.77;45.50;;;;;;;8.03;92.60;99280.47;5069300;28;20235;-55
2022/12/23 10:19:20;;;;;;;85.30;44.43;;;;;;;8.18;92.10;99281.00;5070050;28;20196;-59
2022/12/23 10:21:50;;;;;;;87.83;45.43;;;;;;;8.25;90.79;99267.03;5069625;28;20901;-60
2022/12/23 10:24:22;;;;;;;92.60;47.80;;;;;;;8.18;91.12;99268.94;5068993;28;20306;-60
2022/12/23 10:26:53;;;;;;;95.70;44.47;;;;;;;8.26;92.50;99263.56;5069459;28;20283;-60
2022/12/23 10:29:22;;;;;;;88.27;44.43;;;;;;;8.37;92.75;99264.22;5069033;28;20210;-56
2022/12/23 10:32:03;;;;;;;96.17;46.27;;;;;;;8.25;93.46;99262.72;5069385;28;20238;-61
2022/12/23 10:34:43;;;;;;;82.77;44.77;;;;;;;8.01;94.38;99253.78;5064055;28;20691;-61
2022/12/23 10:37:18;;;;;;;95.80;47.47;;;;;;;7.83;95.99;99267.13;5048802;28;20204;-61
2022/12/23 10:39:53;;;;;;;97.83;48.57;;;;;;;7.83;97.49;99261.97;5049147;28;20192;-56
2022/12/23 10:42:28;;;;;;;87.63;46.97;;;;;;;7.94;96.27;99248.81;5036934;28;20212;-57
2022/12/23 10:45:33;;;;;;;89.60;50.80;;;;;;;8.23;95.24;99261.09;5050272;28;20829;-56
2022/12/23 10:48:15;;;;;;;107.63;54.53;;;;;;;8.40;95.13;99258.97;5067569;28;20223;-57
2022/12/23 10:50:51;;;;;;;90.50;49.33;;;;;;;8.37;94.15;99256.44;5067930;28;20228;-55
2022/12/23 10:53:29;;;;;;;94.60;48.47;;;;;;;8.48;94.83;99253.59;5057121;28;20225;-56
2022/12/23 10:55:57;;;;;;;107.23;52.97;;;;;;;8.45;94.04;99254.56;5027395;28;20733;-56
2022/12/23 10:58:26;;;;;;;99.60;51.77;;;;;;;8.46;93.56;99252.81;5027458;28;20198;-56
2022/12/23 11:00:56;;;;;;;114.87;55.07;;;;;;;8.46;94.14;99253.66;5027614;28;20208;-57
2022/12/23 11:03:29;;;;;;;104.03;52.27;;;;;;;8.45;93.74;99246.78;5027870;28;20551;-56
2022/12/23 11:05:57;;;;;;;93.17;50.90;;;;;;;8.54;92.48;99251.72;5027942;28;20231;-56
2022/12/23 11:08:27;;;;;;;100.17;51.87;;;;;;;8.53;92.94;99257.78;5027957;28;20629;-56
2022/12/23 11:10:54;;;;;;;87.67;49.73;;;;;;;8.65;93.15;99254.91;5028581;28;20678;-61
2022/12/23 11:13:33;;;;;;;104.97;51.93;;;;;;;8.72;92.42;99247.81;5028315;28;20292;-61
2022/12/23 11:16:12;;;;;;;97.90;49.60;;;;;;;8.65;93.27;99241.13;5028723;28;20233;-61
2022/12/23 11:18:53;;;;;;;99.20;52.50;;;;;;;8.70;93.63;99231.47;5028858;28;20772;-61
2022/12/23 11:21:20;;;;;;;102.53;52.80;;;;;;;8.76;92.70;99243.44;5028884;28;20593;-61
2022/12/23 11:23:47;;;;;;;112.63;58.87;;;;;;;8.85;92.66;99240.59;5031827;28;20579;-61
2022/12/23 11:26:19;;;;;;;103.93;56.43;;;;;;;8.59;94.19;99246.44;5032377;28;20217;-60
2022/12/23 11:28:50;;;;;;;116.17;61.73;;;;;;;8.55;94.05;99235.31;5032106;28;20209;-61
2022/12/23 11:31:26;;;;;;;116.50;58.23;;;;;;;8.47;94.55;99229.47;5031645;28;20204;-61
2022/12/23 11:33:59;;;;;;;110.17;58.23;;;;;;;8.50;94.22;99224.22;5032039;28;20238;-61
2022/12/23 11:36:28;;;;;;;129.40;58.30;;;;;;;8.56;94.07;99220.66;5044783;28;20218;-61
2022/12/23 11:39:02;;;;;;;105.20;56.47;;;;;;;8.65;94.01;99231.63;5071501;28;20202;-56
2022/12/23 11:41:35;;;;;;;109.60;56.30;;;;;;;8.41;94.72;99219.28;5071442;28;20616;-55
2022/12/23 11:44:07;;;;;;;105.73;55.80;;;;;;;8.51;95.17;99223.34;5071754;28;20296;-60
2022/12/23 11:46:34;;;;;;;103.73;55.63;;;;;;;8.70;94.10;99221.13;5072664;28;20586;-61
2022/12/23 11:49:15;;;;;;;112.87;55.93;;;;;;;8.72;93.22;99217.63;5072524;28;20697;-55
2022/12/23 11:51:42;;;;;;;112.73;57.20;;;;;;;8.87;93.27;99224.13;5057450;28;20735;-61
2022/12/23 11:54:15;;;;;;;111.20;56.07;;;;;;;8.95;92.07;99213.56;5070827;28;20203;-61
2022/12/23 11:56:43;;;;;;;112.73;55.77;;;;;;;9.00;91.94;99219.50;5067964;28;20648;-62
2022/12/23 11:59:27;;;;;;;106.80;56.60;;;;;;;9.09;92.13;99217.50;5071003;28;20196;-61